sensor_id;sensor_type;location;lat;lon;timestamp;P1;durP1;ratioP1;P2;durP2;ratioP2
56455;SDS011;42354;53.218;6.564;2023-09-19T00:00:57;8.63;;;1.70;;
56455;SDS011;42354;53.218;6.564;2023-09-19T00:03:23;17.80;;;2.15;;
56455;SDS011;42354;53.218;6.564;2023-09-19T00:05:49;9.10;;;1.40;;
56455;SDS011;42354;53.218;6.564;2023-09-19T00:08:15;8.30;;;1.65;;
56455;SDS011;42354;53.218;6.564;2023-09-19T00:10:41;10.15;;;1.90;;
56455;SDS011;42354;53.218;6.564;2023-09-19T00:13:08;11.80;;;2.40;;
56455;SDS011;42354;53.218;6.564;2023-09-19T00:15:38;10.40;;;1.98;;
56455;SDS011;42354;53.218;6.564;2023-09-19T00:18:05;15.52;;;2.47;;
56455;SDS011;42354;53.218;6.564;2023-09-19T00:20:32;9.25;;;1.90;;
56455;SDS011;42354;53.218;6.564;2023-09-19T00:22:59;10.07;;;1.90;;
56455;SDS011;42354;53.218;6.564;2023-09-19T00:25:31;13.48;;;2.45;;
56455;SDS011;42354;53.218;6.564;2023-09-19T00:28:00;17.15;;;1.92;;
56455;SDS011;42354;53.218;6.564;2023-09-19T00:30:26;13.00;;;1.77;;
56455;SDS011;42354;53.218;6.564;2023-09-19T00:32:51;10.95;;;1.83;;
56455;SDS011;42354;53.218;6.564;2023-09-19T00:35:20;10.65;;;1.90;;
56455;SDS011;42354;53.218;6.564;2023-09-19T00:37:49;13.80;;;1.58;;
56455;SDS011;42354;53.218;6.564;2023-09-19T00:40:15;12.05;;;2.08;;
56455;SDS011;42354;53.218;6.564;2023-09-19T00:42:44;11.50;;;1.42;;
56455;SDS011;42354;53.218;6.564;2023-09-19T00:45:11;11.68;;;1.88;;
56455;SDS011;42354;53.218;6.564;2023-09-19T00:47:38;9.45;;;1.88;;
56455;SDS011;42354;53.218;6.564;2023-09-19T00:50:09;12.80;;;2.00;;
56455;SDS011;42354;53.218;6.564;2023-09-19T00:52:36;12.40;;;1.73;;
56455;SDS011;42354;53.218;6.564;2023-09-19T00:55:03;13.15;;;1.60;;
56455;SDS011;42354;53.218;6.564;2023-09-19T00:57:30;12.82;;;2.25;;
56455;SDS011;42354;53.218;6.564;2023-09-19T00:59:57;6.68;;;1.33;;
56455;SDS011;42354;53.218;6.564;2023-09-19T01:02:24;13.98;;;1.67;;
56455;SDS011;42354;53.218;6.564;2023-09-19T01:04:53;20.23;;;2.00;;
56455;SDS011;42354;53.218;6.564;2023-09-19T01:07:19;16.38;;;1.58;;
56455;SDS011;42354;53.218;6.564;2023-09-19T01:09:46;12.93;;;1.80;;
56455;SDS011;42354;53.218;6.564;2023-09-19T01:12:11;6.95;;;1.40;;
56455;SDS011;42354;53.218;6.564;2023-09-19T01:15:04;13.40;;;1.55;;
56455;SDS011;42354;53.218;6.564;2023-09-19T01:17:49;8.32;;;1.38;;
56455;SDS011;42354;53.218;6.564;2023-09-19T01:23:09;12.45;;;1.75;;
56455;SDS011;42354;53.218;6.564;2023-09-19T01:28:34;10.35;;;1.55;;
56455;SDS011;42354;53.218;6.564;2023-09-19T01:31:03;13.55;;;1.58;;
56455;SDS011;42354;53.218;6.564;2023-09-19T01:36:22;9.48;;;1.58;;
56455;SDS011;42354;53.218;6.564;2023-09-19T01:38:49;13.38;;;1.58;;
56455;SDS011;42354;53.218;6.564;2023-09-19T01:41:16;9.60;;;1.60;;
56455;SDS011;42354;53.218;6.564;2023-09-19T01:43:49;8.20;;;1.58;;
56455;SDS011;42354;53.218;6.564;2023-09-19T01:46:21;10.80;;;2.25;;
56455;SDS011;42354;53.218;6.564;2023-09-19T01:54:12;8.77;;;1.40;;
56455;SDS011;42354;53.218;6.564;2023-09-19T01:56:53;9.45;;;2.30;;
56455;SDS011;42354;53.218;6.564;2023-09-19T01:59:28;14.40;;;1.77;;
56455;SDS011;42354;53.218;6.564;2023-09-19T02:02:00;10.88;;;1.50;;
56455;SDS011;42354;53.218;6.564;2023-09-19T02:04:27;10.73;;;1.77;;
56455;SDS011;42354;53.218;6.564;2023-09-19T02:06:52;17.65;;;2.15;;
56455;SDS011;42354;53.218;6.564;2023-09-19T02:09:18;10.75;;;1.65;;
56455;SDS011;42354;53.218;6.564;2023-09-19T02:11:43;7.00;;;1.50;;
56455;SDS011;42354;53.218;6.564;2023-09-19T02:14:09;11.50;;;1.58;;
56455;SDS011;42354;53.218;6.564;2023-09-19T02:16:34;11.63;;;2.20;;
56455;SDS011;42354;53.218;6.564;2023-09-19T02:19:00;8.75;;;1.80;;
56455;SDS011;42354;53.218;6.564;2023-09-19T02:21:30;13.80;;;1.67;;
56455;SDS011;42354;53.218;6.564;2023-09-19T02:23:56;12.68;;;1.77;;
56455;SDS011;42354;53.218;6.564;2023-09-19T02:26:21;12.80;;;2.00;;
56455;SDS011;42354;53.218;6.564;2023-09-19T02:28:49;17.85;;;2.00;;
56455;SDS011;42354;53.218;6.564;2023-09-19T02:31:15;10.48;;;2.00;;
56455;SDS011;42354;53.218;6.564;2023-09-19T02:33:41;10.43;;;1.90;;
56455;SDS011;42354;53.218;6.564;2023-09-19T02:36:07;11.80;;;1.85;;
56455;SDS011;42354;53.218;6.564;2023-09-19T02:38:33;8.20;;;2.13;;
56455;SDS011;42354;53.218;6.564;2023-09-19T02:40:59;8.43;;;2.08;;
56455;SDS011;42354;53.218;6.564;2023-09-19T02:43:24;11.90;;;2.03;;
56455;SDS011;42354;53.218;6.564;2023-09-19T02:45:50;9.05;;;1.40;;
56455;SDS011;42354;53.218;6.564;2023-09-19T02:48:16;10.02;;;1.90;;
56455;SDS011;42354;53.218;6.564;2023-09-19T02:50:42;12.77;;;1.88;;
56455;SDS011;42354;53.218;6.564;2023-09-19T02:53:08;13.82;;;2.33;;
56455;SDS011;42354;53.218;6.564;2023-09-19T02:55:33;11.55;;;1.80;;
56455;SDS011;42354;53.218;6.564;2023-09-19T02:57:59;13.13;;;1.88;;
56455;SDS011;42354;53.218;6.564;2023-09-19T03:00:25;12.85;;;1.48;;
56455;SDS011;42354;53.218;6.564;2023-09-19T03:02:54;11.40;;;1.50;;
56455;SDS011;42354;53.218;6.564;2023-09-19T03:05:21;13.27;;;1.52;;
56455;SDS011;42354;53.218;6.564;2023-09-19T03:07:48;7.43;;;1.52;;
56455;SDS011;42354;53.218;6.564;2023-09-19T03:10:15;11.95;;;2.10;;
56455;SDS011;42354;53.218;6.564;2023-09-19T03:12:42;10.38;;;1.80;;
56455;SDS011;42354;53.218;6.564;2023-09-19T03:15:08;8.73;;;1.50;;
56455;SDS011;42354;53.218;6.564;2023-09-19T03:17:34;10.75;;;1.52;;
56455;SDS011;42354;53.218;6.564;2023-09-19T03:20:00;9.57;;;2.00;;
56455;SDS011;42354;53.218;6.564;2023-09-19T03:22:26;16.95;;;1.75;;
56455;SDS011;42354;53.218;6.564;2023-09-19T03:24:52;12.00;;;1.70;;
56455;SDS011;42354;53.218;6.564;2023-09-19T03:27:18;10.70;;;1.55;;
56455;SDS011;42354;53.218;6.564;2023-09-19T03:29:43;13.15;;;1.50;;
56455;SDS011;42354;53.218;6.564;2023-09-19T03:32:09;9.43;;;1.55;;
56455;SDS011;42354;53.218;6.564;2023-09-19T03:34:37;8.05;;;1.40;;
56455;SDS011;42354;53.218;6.564;2023-09-19T03:37:07;10.82;;;1.65;;
56455;SDS011;42354;53.218;6.564;2023-09-19T03:39:32;13.73;;;1.50;;
56455;SDS011;42354;53.218;6.564;2023-09-19T03:41:57;9.82;;;1.45;;
56455;SDS011;42354;53.218;6.564;2023-09-19T03:44:23;7.90;;;1.33;;
56455;SDS011;42354;53.218;6.564;2023-09-19T03:46:48;12.52;;;1.58;;
56455;SDS011;42354;53.218;6.564;2023-09-19T03:49:14;10.52;;;1.58;;
56455;SDS011;42354;53.218;6.564;2023-09-19T03:51:39;7.07;;;1.80;;
56455;SDS011;42354;53.218;6.564;2023-09-19T03:54:06;7.38;;;1.38;;
56455;SDS011;42354;53.218;6.564;2023-09-19T03:56:32;12.02;;;1.85;;
56455;SDS011;42354;53.218;6.564;2023-09-19T03:58:57;11.07;;;2.00;;
56455;SDS011;42354;53.218;6.564;2023-09-19T04:01:23;12.90;;;1.83;;
56455;SDS011;42354;53.218;6.564;2023-09-19T04:03:48;10.93;;;1.90;;
56455;SDS011;42354;53.218;6.564;2023-09-19T04:06:16;12.23;;;1.90;;
56455;SDS011;42354;53.218;6.564;2023-09-19T04:08:42;13.02;;;1.77;;
56455;SDS011;42354;53.218;6.564;2023-09-19T04:11:09;11.48;;;2.30;;
56455;SDS011;42354;53.218;6.564;2023-09-19T04:13:35;11.05;;;2.10;;
56455;SDS011;42354;53.218;6.564;2023-09-19T04:16:01;11.55;;;1.65;;
56455;SDS011;42354;53.218;6.564;2023-09-19T04:18:28;11.25;;;1.85;;
56455;SDS011;42354;53.218;6.564;2023-09-19T04:20:56;13.57;;;1.65;;
56455;SDS011;42354;53.218;6.564;2023-09-19T04:23:21;8.30;;;1.83;;
56455;SDS011;42354;53.218;6.564;2023-09-19T04:25:47;10.43;;;1.60;;
56455;SDS011;42354;53.218;6.564;2023-09-19T04:28:13;11.05;;;1.88;;
56455;SDS011;42354;53.218;6.564;2023-09-19T04:30:39;16.50;;;2.03;;
56455;SDS011;42354;53.218;6.564;2023-09-19T04:33:05;12.27;;;1.33;;
56455;SDS011;42354;53.218;6.564;2023-09-19T04:35:31;12.25;;;1.70;;
56455;SDS011;42354;53.218;6.564;2023-09-19T04:37:57;9.38;;;1.77;;
56455;SDS011;42354;53.218;6.564;2023-09-19T04:40:22;11.07;;;1.35;;
56455;SDS011;42354;53.218;6.564;2023-09-19T04:42:58;11.13;;;1.67;;
56455;SDS011;42354;53.218;6.564;2023-09-19T04:45:25;8.95;;;1.50;;
56455;SDS011;42354;53.218;6.564;2023-09-19T04:47:54;8.25;;;2.00;;
56455;SDS011;42354;53.218;6.564;2023-09-19T04:50:21;12.20;;;2.05;;
56455;SDS011;42354;53.218;6.564;2023-09-19T04:52:50;14.05;;;1.88;;
56455;SDS011;42354;53.218;6.564;2023-09-19T04:55:16;13.48;;;2.20;;
56455;SDS011;42354;53.218;6.564;2023-09-19T04:57:47;13.60;;;1.73;;
56455;SDS011;42354;53.218;6.564;2023-09-19T05:00:13;9.55;;;1.70;;
56455;SDS011;42354;53.218;6.564;2023-09-19T05:02:41;12.32;;;2.13;;
56455;SDS011;42354;53.218;6.564;2023-09-19T05:05:07;9.80;;;2.00;;
56455;SDS011;42354;53.218;6.564;2023-09-19T05:07:35;8.63;;;1.92;;
56455;SDS011;42354;53.218;6.564;2023-09-19T05:10:00;12.40;;;1.70;;
56455;SDS011;42354;53.218;6.564;2023-09-19T05:12:26;14.57;;;2.35;;
56455;SDS011;42354;53.218;6.564;2023-09-19T05:14:52;11.90;;;1.95;;
56455;SDS011;42354;53.218;6.564;2023-09-19T05:17:17;11.45;;;1.70;;
56455;SDS011;42354;53.218;6.564;2023-09-19T05:19:43;7.88;;;2.20;;
56455;SDS011;42354;53.218;6.564;2023-09-19T05:22:08;12.90;;;2.05;;
56455;SDS011;42354;53.218;6.564;2023-09-19T05:24:34;9.52;;;1.92;;
56455;SDS011;42354;53.218;6.564;2023-09-19T05:26:59;11.65;;;2.05;;
56455;SDS011;42354;53.218;6.564;2023-09-19T05:29:25;7.63;;;1.63;;
56455;SDS011;42354;53.218;6.564;2023-09-19T05:31:51;9.07;;;1.70;;
56455;SDS011;42354;53.218;6.564;2023-09-19T05:34:16;12.18;;;1.83;;
56455;SDS011;42354;53.218;6.564;2023-09-19T05:36:41;10.85;;;1.90;;
56455;SDS011;42354;53.218;6.564;2023-09-19T05:39:07;12.60;;;2.15;;
56455;SDS011;42354;53.218;6.564;2023-09-19T05:41:35;12.48;;;2.15;;
56455;SDS011;42354;53.218;6.564;2023-09-19T05:44:02;10.52;;;1.98;;
56455;SDS011;42354;53.218;6.564;2023-09-19T05:46:28;12.27;;;2.17;;
56455;SDS011;42354;53.218;6.564;2023-09-19T05:48:55;15.07;;;1.85;;
56455;SDS011;42354;53.218;6.564;2023-09-19T05:51:23;9.57;;;1.63;;
56455;SDS011;42354;53.218;6.564;2023-09-19T05:53:50;10.25;;;1.63;;
56455;SDS011;42354;53.218;6.564;2023-09-19T05:56:15;8.65;;;1.80;;
56455;SDS011;42354;53.218;6.564;2023-09-19T05:58:42;10.15;;;1.83;;
56455;SDS011;42354;53.218;6.564;2023-09-19T06:01:09;7.00;;;1.50;;
56455;SDS011;42354;53.218;6.564;2023-09-19T06:03:35;7.25;;;1.55;;
56455;SDS011;42354;53.218;6.564;2023-09-19T06:06:01;7.30;;;1.77;;
56455;SDS011;42354;53.218;6.564;2023-09-19T06:08:27;10.57;;;1.75;;
56455;SDS011;42354;53.218;6.564;2023-09-19T06:10:53;10.95;;;2.45;;
56455;SDS011;42354;53.218;6.564;2023-09-19T06:13:19;9.65;;;2.50;;
56455;SDS011;42354;53.218;6.564;2023-09-19T06:15:45;11.77;;;2.20;;
56455;SDS011;42354;53.218;6.564;2023-09-19T06:18:12;10.20;;;1.83;;
56455;SDS011;42354;53.218;6.564;2023-09-19T06:20:44;16.58;;;2.20;;
56455;SDS011;42354;53.218;6.564;2023-09-19T06:23:15;13.75;;;1.90;;
56455;SDS011;42354;53.218;6.564;2023-09-19T06:25:42;10.02;;;1.83;;
56455;SDS011;42354;53.218;6.564;2023-09-19T06:28:10;8.75;;;2.08;;
56455;SDS011;42354;53.218;6.564;2023-09-19T06:30:39;8.65;;;2.00;;
56455;SDS011;42354;53.218;6.564;2023-09-19T06:33:05;12.20;;;1.75;;
56455;SDS011;42354;53.218;6.564;2023-09-19T06:35:33;13.95;;;1.92;;
56455;SDS011;42354;53.218;6.564;2023-09-19T06:38:02;13.25;;;2.05;;
56455;SDS011;42354;53.218;6.564;2023-09-19T06:40:29;13.82;;;1.88;;
56455;SDS011;42354;53.218;6.564;2023-09-19T06:42:56;10.07;;;1.73;;
56455;SDS011;42354;53.218;6.564;2023-09-19T06:45:21;11.88;;;2.00;;
56455;SDS011;42354;53.218;6.564;2023-09-19T06:47:47;15.32;;;1.90;;
56455;SDS011;42354;53.218;6.564;2023-09-19T06:50:17;15.05;;;2.35;;
56455;SDS011;42354;53.218;6.564;2023-09-19T06:52:47;15.00;;;2.15;;
56455;SDS011;42354;53.218;6.564;2023-09-19T06:55:15;10.07;;;1.67;;
56455;SDS011;42354;53.218;6.564;2023-09-19T06:57:41;12.07;;;2.13;;
56455;SDS011;42354;53.218;6.564;2023-09-19T07:00:08;11.13;;;2.30;;
56455;SDS011;42354;53.218;6.564;2023-09-19T07:02:41;11.38;;;2.15;;
56455;SDS011;42354;53.218;6.564;2023-09-19T07:05:07;15.65;;;2.75;;
56455;SDS011;42354;53.218;6.564;2023-09-19T07:07:32;17.75;;;2.15;;
56455;SDS011;42354;53.218;6.564;2023-09-19T07:10:00;10.23;;;1.70;;
56455;SDS011;42354;53.218;6.564;2023-09-19T07:12:30;11.90;;;1.92;;
56455;SDS011;42354;53.218;6.564;2023-09-19T07:14:57;13.70;;;1.88;;
56455;SDS011;42354;53.218;6.564;2023-09-19T07:17:22;11.68;;;2.53;;
56455;SDS011;42354;53.218;6.564;2023-09-19T07:19:49;11.20;;;2.03;;
56455;SDS011;42354;53.218;6.564;2023-09-19T07:22:15;11.32;;;1.67;;
56455;SDS011;42354;53.218;6.564;2023-09-19T07:24:41;13.82;;;2.13;;
56455;SDS011;42354;53.218;6.564;2023-09-19T07:27:06;10.80;;;1.73;;
56455;SDS011;42354;53.218;6.564;2023-09-19T07:29:31;13.48;;;2.05;;
56455;SDS011;42354;53.218;6.564;2023-09-19T07:31:57;14.38;;;1.77;;
56455;SDS011;42354;53.218;6.564;2023-09-19T07:34:22;12.27;;;2.38;;
56455;SDS011;42354;53.218;6.564;2023-09-19T07:36:49;13.23;;;1.70;;
56455;SDS011;42354;53.218;6.564;2023-09-19T07:39:15;11.35;;;2.25;;
56455;SDS011;42354;53.218;6.564;2023-09-19T07:41:40;9.27;;;1.70;;
56455;SDS011;42354;53.218;6.564;2023-09-19T07:44:07;11.00;;;2.33;;
56455;SDS011;42354;53.218;6.564;2023-09-19T07:46:32;10.43;;;1.77;;
56455;SDS011;42354;53.218;6.564;2023-09-19T07:48:58;13.90;;;1.90;;
56455;SDS011;42354;53.218;6.564;2023-09-19T07:51:24;12.77;;;2.38;;
56455;SDS011;42354;53.218;6.564;2023-09-19T07:53:49;12.50;;;2.13;;
56455;SDS011;42354;53.218;6.564;2023-09-19T07:56:14;10.77;;;1.88;;
56455;SDS011;42354;53.218;6.564;2023-09-19T07:58:40;12.93;;;1.95;;
56455;SDS011;42354;53.218;6.564;2023-09-19T08:01:09;10.18;;;1.67;;
56455;SDS011;42354;53.218;6.564;2023-09-19T08:03:35;9.50;;;1.40;;
56455;SDS011;42354;53.218;6.564;2023-09-19T08:06:05;13.77;;;1.95;;
56455;SDS011;42354;53.218;6.564;2023-09-19T08:08:32;10.98;;;2.00;;
56455;SDS011;42354;53.218;6.564;2023-09-19T08:11:02;12.80;;;2.30;;
56455;SDS011;42354;53.218;6.564;2023-09-19T08:13:29;15.45;;;2.20;;
56455;SDS011;42354;53.218;6.564;2023-09-19T08:15:56;12.13;;;2.35;;
56455;SDS011;42354;53.218;6.564;2023-09-19T08:18:21;6.82;;;1.70;;
56455;SDS011;42354;53.218;6.564;2023-09-19T08:20:51;10.95;;;2.13;;
56455;SDS011;42354;53.218;6.564;2023-09-19T08:23:17;11.85;;;2.10;;
56455;SDS011;42354;53.218;6.564;2023-09-19T08:25:45;10.50;;;1.85;;
56455;SDS011;42354;53.218;6.564;2023-09-19T08:28:13;8.70;;;1.70;;
56455;SDS011;42354;53.218;6.564;2023-09-19T08:30:43;14.15;;;2.00;;
56455;SDS011;42354;53.218;6.564;2023-09-19T08:33:10;10.52;;;1.98;;
56455;SDS011;42354;53.218;6.564;2023-09-19T08:35:36;9.70;;;1.92;;
56455;SDS011;42354;53.218;6.564;2023-09-19T08:38:03;7.30;;;2.08;;
56455;SDS011;42354;53.218;6.564;2023-09-19T08:40:32;13.90;;;2.13;;
56455;SDS011;42354;53.218;6.564;2023-09-19T08:43:01;15.50;;;2.22;;
56455;SDS011;42354;53.218;6.564;2023-09-19T08:45:27;16.00;;;2.25;;
56455;SDS011;42354;53.218;6.564;2023-09-19T08:50:31;10.38;;;1.80;;
56455;SDS011;42354;53.218;6.564;2023-09-19T08:53:01;11.23;;;2.15;;
56455;SDS011;42354;53.218;6.564;2023-09-19T08:55:36;12.38;;;1.80;;
56455;SDS011;42354;53.218;6.564;2023-09-19T08:58:05;10.18;;;2.17;;
56455;SDS011;42354;53.218;6.564;2023-09-19T09:00:35;11.45;;;2.08;;
56455;SDS011;42354;53.218;6.564;2023-09-19T09:03:02;8.63;;;1.50;;
56455;SDS011;42354;53.218;6.564;2023-09-19T09:05:31;8.80;;;2.08;;
56455;SDS011;42354;53.218;6.564;2023-09-19T09:07:59;10.38;;;2.35;;
56455;SDS011;42354;53.218;6.564;2023-09-19T09:10:27;10.18;;;1.83;;
56455;SDS011;42354;53.218;6.564;2023-09-19T09:12:53;16.48;;;2.42;;
56455;SDS011;42354;53.218;6.564;2023-09-19T09:15:20;13.13;;;2.10;;
56455;SDS011;42354;53.218;6.564;2023-09-19T09:17:47;10.05;;;2.17;;
56455;SDS011;42354;53.218;6.564;2023-09-19T09:20:16;10.65;;;1.90;;
56455;SDS011;42354;53.218;6.564;2023-09-19T09:22:53;11.20;;;2.33;;
56455;SDS011;42354;53.218;6.564;2023-09-19T09:25:46;14.25;;;3.17;;
56455;SDS011;42354;53.218;6.564;2023-09-19T09:28:22;9.45;;;2.70;;
56455;SDS011;42354;53.218;6.564;2023-09-19T09:30:49;12.23;;;2.80;;
56455;SDS011;42354;53.218;6.564;2023-09-19T09:33:15;14.27;;;2.85;;
56455;SDS011;42354;53.218;6.564;2023-09-19T09:36:00;16.13;;;2.85;;
56455;SDS011;42354;53.218;6.564;2023-09-19T09:38:28;15.10;;;2.88;;
56455;SDS011;42354;53.218;6.564;2023-09-19T09:40:58;10.77;;;2.90;;
56455;SDS011;42354;53.218;6.564;2023-09-19T09:43:38;11.45;;;2.70;;
56455;SDS011;42354;53.218;6.564;2023-09-19T09:46:18;12.20;;;2.55;;
56455;SDS011;42354;53.218;6.564;2023-09-19T09:49:02;12.60;;;3.10;;
56455;SDS011;42354;53.218;6.564;2023-09-19T09:51:50;15.18;;;2.72;;
56455;SDS011;42354;53.218;6.564;2023-09-19T09:54:27;13.73;;;2.88;;
56455;SDS011;42354;53.218;6.564;2023-09-19T09:57:06;12.48;;;2.70;;
56455;SDS011;42354;53.218;6.564;2023-09-19T09:59:51;12.25;;;2.58;;
56455;SDS011;42354;53.218;6.564;2023-09-19T10:02:26;16.70;;;2.53;;
56455;SDS011;42354;53.218;6.564;2023-09-19T10:08:11;15.15;;;2.65;;
56455;SDS011;42354;53.218;6.564;2023-09-19T10:10:44;13.45;;;2.58;;
56455;SDS011;42354;53.218;6.564;2023-09-19T10:13:19;14.02;;;2.25;;
56455;SDS011;42354;53.218;6.564;2023-09-19T10:15:49;16.38;;;2.28;;
56455;SDS011;42354;53.218;6.564;2023-09-19T10:18:20;14.50;;;2.13;;
56455;SDS011;42354;53.218;6.564;2023-09-19T10:20:53;15.98;;;2.88;;
56455;SDS011;42354;53.218;6.564;2023-09-19T10:23:20;12.52;;;1.92;;
56455;SDS011;42354;53.218;6.564;2023-09-19T10:25:51;14.02;;;2.47;;
56455;SDS011;42354;53.218;6.564;2023-09-19T10:28:17;17.92;;;2.92;;
56455;SDS011;42354;53.218;6.564;2023-09-19T10:30:50;15.50;;;2.90;;
56455;SDS011;42354;53.218;6.564;2023-09-19T10:33:18;10.05;;;2.05;;
56455;SDS011;42354;53.218;6.564;2023-09-19T10:35:46;12.68;;;2.30;;
56455;SDS011;42354;53.218;6.564;2023-09-19T10:38:14;17.77;;;2.80;;
56455;SDS011;42354;53.218;6.564;2023-09-19T10:40:42;13.23;;;2.50;;
56455;SDS011;42354;53.218;6.564;2023-09-19T10:43:18;12.25;;;2.47;;
56455;SDS011;42354;53.218;6.564;2023-09-19T10:45:46;13.57;;;2.47;;
56455;SDS011;42354;53.218;6.564;2023-09-19T10:48:14;17.20;;;2.28;;
56455;SDS011;42354;53.218;6.564;2023-09-19T10:50:45;12.45;;;2.40;;
56455;SDS011;42354;53.218;6.564;2023-09-19T10:53:14;15.05;;;2.53;;
56455;SDS011;42354;53.218;6.564;2023-09-19T10:55:42;14.23;;;2.88;;
56455;SDS011;42354;53.218;6.564;2023-09-19T10:58:24;13.23;;;2.38;;
56455;SDS011;42354;53.218;6.564;2023-09-19T11:00:57;15.70;;;2.30;;
56455;SDS011;42354;53.218;6.564;2023-09-19T11:03:37;15.52;;;3.13;;
56455;SDS011;42354;53.218;6.564;2023-09-19T11:11:50;10.85;;;2.33;;
56455;SDS011;42354;53.218;6.564;2023-09-19T11:30:46;14.18;;;2.78;;
56455;SDS011;42354;53.218;6.564;2023-09-19T11:36:01;15.20;;;2.95;;
56455;SDS011;42354;53.218;6.564;2023-09-19T11:43:50;12.70;;;3.17;;
56455;SDS011;42354;53.218;6.564;2023-09-19T11:46:16;7.60;;;2.10;;
56455;SDS011;42354;53.218;6.564;2023-09-19T11:48:47;8.30;;;1.98;;
56455;SDS011;42354;53.218;6.564;2023-09-19T11:51:15;12.55;;;2.22;;
56455;SDS011;42354;53.218;6.564;2023-09-19T11:53:49;12.40;;;2.00;;
56455;SDS011;42354;53.218;6.564;2023-09-19T11:56:16;12.55;;;2.08;;
56455;SDS011;42354;53.218;6.564;2023-09-19T11:58:48;10.02;;;1.95;;
56455;SDS011;42354;53.218;6.564;2023-09-19T12:01:31;10.48;;;2.00;;
56455;SDS011;42354;53.218;6.564;2023-09-19T12:03:59;11.60;;;2.17;;
56455;SDS011;42354;53.218;6.564;2023-09-19T12:06:27;10.07;;;2.22;;
56455;SDS011;42354;53.218;6.564;2023-09-19T12:08:54;15.38;;;2.65;;
56455;SDS011;42354;53.218;6.564;2023-09-19T12:11:22;11.15;;;2.05;;
56455;SDS011;42354;53.218;6.564;2023-09-19T12:13:48;15.10;;;2.35;;
56455;SDS011;42354;53.218;6.564;2023-09-19T12:16:15;14.55;;;2.30;;
56455;SDS011;42354;53.218;6.564;2023-09-19T12:18:42;17.08;;;3.22;;
56455;SDS011;42354;53.218;6.564;2023-09-19T12:24:07;13.98;;;3.08;;
56455;SDS011;42354;53.218;6.564;2023-09-19T12:26:44;12.80;;;2.10;;
56455;SDS011;42354;53.218;6.564;2023-09-19T12:29:16;16.45;;;2.55;;
56455;SDS011;42354;53.218;6.564;2023-09-19T12:31:52;10.10;;;2.03;;
56455;SDS011;42354;53.218;6.564;2023-09-19T12:34:26;13.63;;;2.38;;
56455;SDS011;42354;53.218;6.564;2023-09-19T12:37:05;11.60;;;2.10;;
56455;SDS011;42354;53.218;6.564;2023-09-19T12:39:42;16.50;;;2.20;;
56455;SDS011;42354;53.218;6.564;2023-09-19T12:42:11;16.30;;;2.33;;
56455;SDS011;42354;53.218;6.564;2023-09-19T12:44:41;14.52;;;1.95;;
56455;SDS011;42354;53.218;6.564;2023-09-19T12:47:09;11.52;;;2.65;;
56455;SDS011;42354;53.218;6.564;2023-09-19T12:55:23;14.98;;;2.03;;
56455;SDS011;42354;53.218;6.564;2023-09-19T12:57:56;9.93;;;2.30;;
56455;SDS011;42354;53.218;6.564;2023-09-19T13:05:55;10.25;;;1.80;;
56455;SDS011;42354;53.218;6.564;2023-09-19T13:08:35;11.77;;;1.77;;
56455;SDS011;42354;53.218;6.564;2023-09-19T13:11:15;11.32;;;2.08;;
56455;SDS011;42354;53.218;6.564;2023-09-19T13:16:14;17.25;;;2.17;;
56455;SDS011;42354;53.218;6.564;2023-09-19T13:18:45;10.98;;;1.88;;
56455;SDS011;42354;53.218;6.564;2023-09-19T13:21:12;11.13;;;1.88;;
56455;SDS011;42354;53.218;6.564;2023-09-19T13:23:54;11.35;;;2.40;;
56455;SDS011;42354;53.218;6.564;2023-09-19T13:26:27;9.27;;;1.77;;
56455;SDS011;42354;53.218;6.564;2023-09-19T13:28:55;5.32;;;1.40;;
56455;SDS011;42354;53.218;6.564;2023-09-19T13:31:21;8.80;;;1.88;;
56455;SDS011;42354;53.218;6.564;2023-09-19T13:33:48;9.00;;;1.88;;
56455;SDS011;42354;53.218;6.564;2023-09-19T13:36:14;8.20;;;1.80;;
56455;SDS011;42354;53.218;6.564;2023-09-19T13:38:42;11.13;;;1.88;;
56455;SDS011;42354;53.218;6.564;2023-09-19T13:41:08;11.90;;;1.98;;
56455;SDS011;42354;53.218;6.564;2023-09-19T13:43:35;10.82;;;1.40;;
56455;SDS011;42354;53.218;6.564;2023-09-19T13:46:01;10.63;;;1.92;;
56455;SDS011;42354;53.218;6.564;2023-09-19T13:48:27;9.38;;;2.00;;
56455;SDS011;42354;53.218;6.564;2023-09-19T13:50:54;6.30;;;1.40;;
56455;SDS011;42354;53.218;6.564;2023-09-19T13:53:20;8.80;;;1.70;;
56455;SDS011;42354;53.218;6.564;2023-09-19T13:55:49;9.52;;;1.83;;
56455;SDS011;42354;53.218;6.564;2023-09-19T13:58:15;6.32;;;1.50;;
56455;SDS011;42354;53.218;6.564;2023-09-19T14:00:40;5.38;;;1.35;;
56455;SDS011;42354;53.218;6.564;2023-09-19T14:03:06;8.07;;;1.70;;
56455;SDS011;42354;53.218;6.564;2023-09-19T14:05:32;7.22;;;1.40;;
56455;SDS011;42354;53.218;6.564;2023-09-19T14:07:58;10.15;;;1.75;;
56455;SDS011;42354;53.218;6.564;2023-09-19T14:10:28;9.35;;;1.85;;
56455;SDS011;42354;53.218;6.564;2023-09-19T14:12:55;11.80;;;1.77;;
56455;SDS011;42354;53.218;6.564;2023-09-19T14:15:21;10.25;;;1.67;;
56455;SDS011;42354;53.218;6.564;2023-09-19T14:17:54;6.80;;;1.23;;
56455;SDS011;42354;53.218;6.564;2023-09-19T14:20:21;8.70;;;1.58;;
56455;SDS011;42354;53.218;6.564;2023-09-19T14:22:47;9.25;;;1.50;;
56455;SDS011;42354;53.218;6.564;2023-09-19T14:25:13;7.75;;;1.58;;
56455;SDS011;42354;53.218;6.564;2023-09-19T14:27:38;7.85;;;1.45;;
56455;SDS011;42354;53.218;6.564;2023-09-19T14:30:04;6.30;;;1.45;;
56455;SDS011;42354;53.218;6.564;2023-09-19T14:32:31;6.25;;;1.13;;
56455;SDS011;42354;53.218;6.564;2023-09-19T14:34:56;8.35;;;1.85;;
56455;SDS011;42354;53.218;6.564;2023-09-19T14:37:21;6.40;;;1.00;;
56455;SDS011;42354;53.218;6.564;2023-09-19T14:39:47;9.27;;;1.35;;
56455;SDS011;42354;53.218;6.564;2023-09-19T14:42:13;6.00;;;1.40;;
56455;SDS011;42354;53.218;6.564;2023-09-19T14:44:42;6.38;;;1.35;;
56455;SDS011;42354;53.218;6.564;2023-09-19T14:47:08;8.65;;;1.67;;
56455;SDS011;42354;53.218;6.564;2023-09-19T14:49:34;8.77;;;1.40;;
56455;SDS011;42354;53.218;6.564;2023-09-19T14:52:00;5.45;;;1.33;;
56455;SDS011;42354;53.218;6.564;2023-09-19T14:54:29;8.00;;;1.48;;
56455;SDS011;42354;53.218;6.564;2023-09-19T14:56:55;4.35;;;1.30;;
56455;SDS011;42354;53.218;6.564;2023-09-19T14:59:30;7.43;;;1.45;;
56455;SDS011;42354;53.218;6.564;2023-09-19T15:01:56;5.35;;;1.30;;
56455;SDS011;42354;53.218;6.564;2023-09-19T15:04:22;8.30;;;1.20;;
56455;SDS011;42354;53.218;6.564;2023-09-19T15:06:47;8.23;;;1.55;;
56455;SDS011;42354;53.218;6.564;2023-09-19T15:09:13;5.75;;;1.42;;
56455;SDS011;42354;53.218;6.564;2023-09-19T15:11:39;3.05;;;1.00;;
56455;SDS011;42354;53.218;6.564;2023-09-19T15:14:04;6.72;;;1.20;;
56455;SDS011;42354;53.218;6.564;2023-09-19T15:16:29;9.80;;;1.55;;
56455;SDS011;42354;53.218;6.564;2023-09-19T15:18:55;6.40;;;1.88;;
56455;SDS011;42354;53.218;6.564;2023-09-19T15:21:20;6.93;;;1.17;;
56455;SDS011;42354;53.218;6.564;2023-09-19T15:23:46;8.18;;;1.50;;
56455;SDS011;42354;53.218;6.564;2023-09-19T15:26:12;5.43;;;1.50;;
56455;SDS011;42354;53.218;6.564;2023-09-19T15:28:39;7.88;;;1.55;;
56455;SDS011;42354;53.218;6.564;2023-09-19T15:31:09;5.22;;;1.13;;
56455;SDS011;42354;53.218;6.564;2023-09-19T15:33:36;12.25;;;1.60;;
56455;SDS011;42354;53.218;6.564;2023-09-19T15:38:29;12.20;;;2.35;;
56455;SDS011;42354;53.218;6.564;2023-09-19T15:40:55;6.97;;;1.35;;
56455;SDS011;42354;53.218;6.564;2023-09-19T15:43:20;9.40;;;1.65;;
56455;SDS011;42354;53.218;6.564;2023-09-19T15:45:46;6.50;;;1.40;;
56455;SDS011;42354;53.218;6.564;2023-09-19T15:48:13;5.95;;;1.38;;
56455;SDS011;42354;53.218;6.564;2023-09-19T15:50:39;5.07;;;1.20;;
56455;SDS011;42354;53.218;6.564;2023-09-19T15:53:06;5.85;;;1.58;;